createdAt,value
2019-03-20T00:02:18.767Z,5.69
2019-03-20T00:04:50.198Z,5.69
2019-03-20T00:07:20.931Z,5.68
2019-03-20T00:09:52.847Z,5.59
2019-03-20T00:12:23.528Z,5.49
2019-03-20T00:14:54.290Z,5.44
2019-03-20T00:17:24.983Z,5.40
2019-03-20T00:19:55.864Z,5.44
2019-03-20T00:22:26.961Z,5.42
2019-03-20T00:24:57.661Z,5.46
2019-03-20T00:27:28.301Z,5.49
2019-03-20T00:29:59.246Z,5.49
2019-03-20T00:32:29.967Z,5.48
2019-03-20T00:35:01.505Z,5.52
2019-03-20T00:37:32.625Z,5.55
2019-03-20T00:40:04.301Z,5.56
2019-03-20T00:42:35.579Z,5.57
2019-03-20T00:45:11.925Z,5.62
2019-03-20T00:47:42.867Z,5.58
2019-03-20T00:50:18.872Z,5.53
2019-03-20T00:52:49.766Z,5.49
2019-03-20T00:55:20.984Z,5.45
2019-03-20T00:57:51.640Z,5.42
2019-03-20T01:00:25.761Z,5.36
2019-03-20T01:02:56.414Z,5.23
2019-03-20T01:05:27.091Z,5.27
2019-03-20T01:07:58.087Z,5.30
2019-03-20T01:10:28.733Z,5.26
2019-03-20T01:12:59.417Z,5.28
2019-03-20T01:15:30.104Z,5.36
2019-03-20T01:18:00.775Z,5.34
2019-03-20T01:20:31.698Z,5.33
2019-03-20T01:23:02.635Z,5.42
2019-03-20T01:25:35.133Z,5.38
2019-03-20T01:28:05.996Z,5.38
2019-03-20T01:30:40.350Z,5.35
2019-03-20T01:33:15.046Z,5.33
2019-03-20T01:35:45.716Z,5.37
2019-03-20T01:38:16.667Z,5.42
2019-03-20T01:40:47.317Z,5.30
2019-03-20T01:43:17.990Z,5.28
2019-03-20T01:45:48.666Z,5.31
2019-03-20T01:48:19.347Z,5.24
2019-03-20T01:50:50.018Z,5.22
2019-03-20T01:53:20.701Z,5.25
2019-03-20T01:55:51.370Z,5.23
2019-03-20T01:58:22.294Z,5.27
2019-03-20T02:00:53.230Z,5.23
2019-03-20T02:03:24.196Z,5.28
2019-03-20T02:05:55.244Z,5.22
2019-03-20T02:08:27.201Z,5.18
2019-03-20T02:10:57.979Z,5.18
2019-03-20T02:13:28.612Z,5.12
2019-03-20T02:15:59.283Z,5.14
2019-03-20T02:18:30.235Z,5.12
2019-03-20T02:21:01.140Z,5.06
2019-03-20T02:23:32.116Z,5.03
2019-03-20T02:26:02.759Z,4.96
2019-03-20T02:28:33.463Z,4.93
2019-03-20T02:31:04.216Z,4.92
2019-03-20T02:33:34.887Z,4.87
2019-03-20T02:36:05.583Z,4.87
2019-03-20T02:38:36.235Z,4.87
2019-03-20T02:41:06.989Z,4.84
2019-03-20T02:43:37.708Z,4.83
2019-03-20T02:46:08.422Z,4.85
2019-03-20T02:48:39.086Z,4.75
2019-03-20T02:51:09.813Z,4.75
2019-03-20T02:53:40.468Z,4.79
2019-03-20T02:56:11.145Z,4.72
2019-03-20T02:58:41.828Z,4.77
2019-03-20T03:01:13.022Z,4.73
2019-03-20T03:03:44.370Z,4.63
2019-03-20T03:06:15.589Z,4.57
2019-03-20T03:08:46.277Z,4.56
2019-03-20T03:11:17.205Z,4.52
2019-03-20T03:13:47.887Z,4.40
2019-03-20T03:16:18.990Z,4.40
2019-03-20T03:18:49.624Z,4.37
2019-03-20T03:21:20.392Z,4.31
2019-03-20T03:23:52.085Z,4.26
2019-03-20T03:26:22.936Z,4.17
2019-03-20T03:28:53.622Z,4.11
2019-03-20T03:31:24.319Z,4.05
2019-03-20T03:33:54.994Z,3.99
2019-03-20T03:36:26.127Z,3.87
2019-03-20T03:38:57.057Z,3.86
2019-03-20T03:41:28.110Z,3.75
2019-03-20T03:43:58.780Z,3.74
2019-03-20T03:46:29.459Z,3.68
2019-03-20T03:49:00.415Z,3.62
2019-03-20T03:51:32.059Z,3.55
2019-03-20T03:54:04.016Z,3.50
2019-03-20T03:56:34.714Z,3.50
2019-03-20T03:59:05.717Z,3.46
2019-03-20T04:01:36.392Z,3.42
2019-03-20T04:04:07.052Z,3.38
2019-03-20T04:06:37.989Z,3.33
2019-03-20T04:09:08.747Z,3.32
2019-03-20T04:11:39.433Z,3.23
2019-03-20T04:14:10.398Z,3.20
2019-03-20T04:16:41.339Z,3.16
2019-03-20T04:19:12.010Z,3.20
2019-03-20T04:21:42.694Z,3.18
2019-03-20T04:24:13.362Z,3.16
2019-03-20T04:26:44.038Z,3.07
2019-03-20T04:29:14.739Z,3.04
2019-03-20T04:31:45.394Z,3.06
2019-03-20T04:34:16.349Z,3.03
2019-03-20T04:36:48.176Z,3.07
2019-03-20T04:39:19.074Z,3.02
2019-03-20T04:41:49.755Z,2.96
2019-03-20T04:44:20.428Z,2.93
2019-03-20T04:46:51.206Z,2.94
2019-03-20T04:49:21.961Z,2.85
2019-03-20T04:51:52.660Z,2.78
2019-03-20T04:54:23.601Z,2.72
2019-03-20T04:56:55.356Z,2.72
2019-03-20T04:59:26.343Z,2.65
2019-03-20T05:01:57.029Z,2.66
2019-03-20T05:04:28.017Z,2.61
2019-03-20T05:06:59.434Z,2.64
2019-03-20T05:09:30.242Z,2.73
2019-03-20T05:12:00.930Z,3.19
2019-03-20T05:14:31.706Z,3.20
2019-03-20T05:17:02.712Z,3.06
2019-03-20T05:19:33.640Z,3.07
2019-03-20T05:22:04.690Z,2.93
2019-03-20T05:24:35.659Z,2.91
2019-03-20T05:27:07.667Z,2.81
2019-03-20T05:29:38.330Z,2.78
2019-03-20T05:32:09.367Z,2.77
2019-03-20T05:34:40.172Z,2.70
2019-03-20T05:37:11.015Z,2.77
2019-03-20T05:39:42.213Z,2.77
2019-03-20T05:42:12.881Z,2.80
2019-03-20T05:44:43.846Z,2.86
2019-03-20T05:47:14.641Z,2.91
2019-03-20T05:49:45.317Z,2.90
2019-03-20T05:52:16.374Z,2.97
2019-03-20T05:54:47.051Z,3.07
2019-03-20T05:57:17.776Z,3.39
2019-03-20T05:59:51.649Z,3.63
2019-03-20T06:02:22.819Z,3.60
2019-03-20T06:04:53.553Z,3.56
2019-03-20T06:07:24.427Z,3.63
2019-03-20T06:09:55.150Z,3.61
2019-03-20T06:12:27.839Z,3.54
2019-03-20T06:14:58.612Z,3.51
2019-03-20T06:17:29.320Z,3.59
2019-03-20T06:20:00.021Z,3.69
2019-03-20T06:22:30.812Z,3.83
2019-03-20T06:25:01.833Z,3.97
2019-03-20T06:27:32.859Z,3.99
2019-03-20T06:30:05.242Z,4.00
2019-03-20T06:32:35.922Z,4.14
2019-03-20T06:35:08.894Z,4.17
2019-03-20T06:37:39.576Z,4.17
2019-03-20T06:40:13.818Z,4.34
2019-03-20T06:42:44.555Z,4.50
2019-03-20T06:45:19.268Z,4.52
2019-03-20T06:47:49.944Z,4.57
2019-03-20T06:50:22.968Z,4.54
2019-03-20T06:52:53.657Z,4.49
2019-03-20T06:55:24.389Z,4.47
2019-03-20T06:57:55.378Z,4.64
2019-03-20T07:00:55.936Z,4.70
2019-03-20T07:03:43.450Z,4.77
2019-03-20T07:06:21.210Z,4.80
2019-03-20T07:09:11.134Z,4.81
2019-03-20T07:11:41.961Z,4.84
2019-03-20T07:14:12.991Z,5.04
2019-03-20T07:16:43.951Z,5.08
2019-03-20T07:19:14.624Z,5.10
2019-03-20T07:21:45.591Z,5.14
2019-03-20T07:24:16.618Z,5.30
2019-03-20T07:26:47.679Z,5.30
2019-03-20T07:29:18.727Z,5.35
2019-03-20T07:31:49.762Z,5.32
2019-03-20T07:38:34.365Z,5.63
2019-03-20T07:41:05.366Z,5.74
2019-03-20T07:43:36.299Z,5.77
2019-03-20T07:46:07.527Z,5.96
2019-03-20T07:48:40.619Z,6.09
2019-03-20T07:51:10.688Z,6.19
2019-03-20T07:53:41.368Z,6.05
2019-03-20T07:56:12.294Z,5.99
2019-03-20T07:58:43.028Z,6.07
2019-03-20T08:01:13.695Z,6.08
2019-03-20T08:03:44.382Z,6.13
2019-03-20T08:06:15.317Z,6.32
2019-03-20T08:08:46.097Z,6.50
2019-03-20T08:11:16.744Z,6.58
2019-03-20T08:13:47.436Z,6.57
2019-03-20T08:16:18.155Z,6.87
2019-03-20T08:18:49.104Z,6.93
2019-03-20T08:21:20.071Z,6.95
2019-03-20T08:23:50.722Z,6.98
2019-03-20T08:26:21.402Z,7.13
2019-03-20T08:28:52.344Z,7.16
2019-03-20T08:31:23.305Z,7.44
2019-03-20T08:33:54.446Z,7.49
2019-03-20T08:36:25.107Z,7.43
2019-03-20T08:38:56.015Z,7.39
2019-03-20T08:41:26.693Z,7.54
2019-03-20T08:43:57.372Z,7.76
2019-03-20T08:46:28.315Z,7.98
2019-03-20T08:48:59.240Z,8.21
2019-03-20T08:51:29.948Z,8.27
2019-03-20T08:54:00.850Z,7.81
2019-03-20T08:56:31.510Z,7.83
2019-03-20T08:59:02.158Z,8.20
2019-03-20T09:01:33.088Z,8.49
2019-03-20T09:04:04.065Z,8.72
2019-03-20T09:06:35.024Z,8.90
2019-03-20T09:09:08.467Z,9.42
2019-03-20T09:11:39.249Z,9.88
2019-03-20T09:14:10.192Z,10.07
2019-03-20T09:16:41.016Z,10.52
2019-03-20T09:19:11.700Z,11.15
2019-03-20T09:21:42.800Z,11.25
2019-03-20T09:24:13.806Z,11.97
2019-03-20T09:26:44.533Z,12.04
2019-03-20T09:29:18.794Z,12.87
2019-03-20T09:31:47.716Z,13.25
2019-03-20T09:34:18.383Z,12.85
2019-03-20T09:36:49.352Z,13.68
2019-03-20T09:39:20.199Z,13.60
2019-03-20T09:41:51.381Z,14.16
2019-03-20T09:44:22.452Z,14.51
2019-03-20T09:46:53.373Z,14.24
2019-03-20T09:49:24.347Z,14.01
2019-03-20T09:51:54.980Z,12.65
2019-03-20T09:54:25.682Z,13.72
2019-03-20T09:56:56.357Z,14.18
2019-03-20T09:59:27.353Z,14.53
2019-03-20T10:01:58.023Z,14.67
2019-03-20T10:04:28.688Z,15.08
2019-03-20T10:06:59.653Z,15.17
2019-03-20T10:09:30.310Z,15.40
2019-03-20T10:12:01.265Z,15.51
2019-03-20T10:14:31.938Z,16.09
2019-03-20T10:17:02.893Z,17.05
2019-03-20T10:19:33.540Z,16.24
2019-03-20T10:22:04.208Z,14.92
2019-03-20T10:24:35.196Z,14.97
2019-03-20T10:27:06.175Z,15.81
2019-03-20T10:29:37.125Z,15.40
2019-03-20T10:32:08.051Z,15.04
2019-03-20T10:34:39.650Z,14.58
2019-03-20T10:37:10.545Z,14.26
2019-03-20T10:39:41.499Z,14.51
2019-03-20T10:42:12.209Z,14.89
2019-03-20T10:44:43.140Z,15.50
2019-03-20T10:47:13.844Z,15.20
2019-03-20T10:49:44.526Z,15.05
2019-03-20T10:52:15.205Z,15.53
2019-03-20T10:54:45.865Z,14.77
2019-03-20T10:57:16.864Z,15.82
2019-03-20T10:59:48.538Z,16.31
2019-03-20T11:02:19.182Z,15.59
2019-03-20T11:04:50.267Z,15.71
2019-03-20T11:07:21.013Z,15.02
2019-03-20T11:09:51.709Z,15.94
2019-03-20T11:12:22.360Z,16.58
2019-03-20T11:14:53.453Z,16.14
2019-03-20T11:17:24.154Z,15.80
2019-03-20T11:19:56.263Z,16.94
2019-03-20T11:22:27.250Z,17.26
2019-03-20T11:24:58.909Z,17.07
2019-03-20T11:27:33.645Z,17.67
2019-03-20T11:30:27.110Z,16.73
2019-03-20T11:32:59.207Z,17.24
2019-03-20T11:35:29.842Z,17.65
2019-03-20T11:38:01.163Z,17.83
2019-03-20T11:40:40.355Z,16.91
2019-03-20T11:43:11.047Z,16.69
2019-03-20T11:45:41.721Z,16.12
2019-03-20T11:48:12.674Z,16.51
2019-03-20T11:50:44.803Z,16.81
2019-03-20T11:53:15.787Z,16.29
2019-03-20T11:55:46.936Z,15.25
2019-03-20T11:58:17.789Z,16.21
2019-03-20T12:00:48.504Z,16.51
2019-03-20T12:03:19.187Z,16.68
2019-03-20T12:05:50.186Z,16.62
2019-03-20T12:08:22.961Z,17.36
2019-03-20T12:10:53.648Z,17.93
2019-03-20T12:13:24.410Z,17.63
2019-03-20T12:15:55.101Z,17.95
2019-03-20T12:18:26.082Z,17.24
2019-03-20T12:20:56.838Z,17.44
2019-03-20T12:23:27.540Z,17.69
2019-03-20T12:25:58.197Z,17.81
2019-03-20T12:28:29.056Z,17.90
2019-03-20T12:31:00.102Z,16.72
2019-03-20T12:33:30.771Z,16.16
2019-03-20T12:36:01.469Z,15.87
2019-03-20T12:38:32.460Z,15.58
2019-03-20T12:41:03.181Z,14.72
2019-03-20T12:43:35.225Z,14.51
2019-03-20T12:46:06.185Z,14.62
2019-03-20T12:48:36.847Z,14.43
2019-03-20T12:51:07.534Z,14.29
2019-03-20T12:53:38.219Z,13.72
2019-03-20T12:56:08.914Z,13.77
2019-03-20T12:58:39.621Z,13.70
2019-03-20T13:01:10.297Z,13.43
2019-03-20T13:03:41.260Z,13.62
2019-03-20T13:06:11.917Z,13.36
2019-03-20T13:08:42.615Z,13.33
2019-03-20T13:11:13.522Z,13.37
2019-03-20T13:13:44.574Z,13.49
2019-03-20T13:16:15.500Z,13.18
2019-03-20T13:18:46.590Z,13.19
2019-03-20T13:21:17.312Z,13.31
2019-03-20T13:23:48.318Z,12.42
2019-03-20T13:26:19.043Z,12.36
2019-03-20T13:28:50.048Z,12.24
2019-03-20T13:31:24.010Z,12.14
2019-03-20T13:33:54.673Z,12.47
2019-03-20T13:36:25.386Z,12.83
2019-03-20T13:38:56.635Z,12.34
2019-03-20T13:41:27.439Z,12.33
2019-03-20T13:43:58.389Z,12.59
2019-03-20T13:46:29.066Z,12.94
2019-03-20T13:48:59.757Z,13.17
2019-03-20T13:51:30.453Z,13.36
2019-03-20T13:54:01.429Z,13.21
2019-03-20T13:56:32.087Z,13.16
2019-03-20T13:59:02.830Z,13.01
2019-03-20T14:01:33.498Z,13.28
2019-03-20T14:04:04.395Z,13.30
2019-03-20T14:06:35.394Z,13.41
2019-03-20T14:09:08.182Z,13.35
2019-03-20T14:11:38.855Z,13.50
2019-03-20T14:14:09.841Z,13.37
2019-03-20T14:16:40.524Z,13.49
2019-03-20T14:19:11.809Z,13.45
2019-03-20T14:21:42.852Z,13.43
2019-03-20T14:24:13.511Z,13.50
2019-03-20T14:26:44.527Z,13.27
2019-03-20T14:29:15.189Z,13.55
2019-03-20T14:31:46.301Z,13.59
2019-03-20T14:34:17.258Z,13.84
2019-03-20T14:36:47.949Z,13.73
2019-03-20T14:39:19.015Z,13.65
2019-03-20T14:41:49.734Z,13.61
2019-03-20T14:44:20.610Z,13.71
2019-03-20T14:46:51.671Z,13.80
2019-03-20T14:49:22.431Z,13.81
2019-03-20T14:51:53.188Z,13.64
2019-03-20T14:54:23.865Z,13.67
2019-03-20T14:56:59.526Z,13.60
2019-03-20T14:59:30.312Z,13.23
2019-03-20T15:02:01.251Z,13.21
2019-03-20T15:04:31.936Z,13.37
2019-03-20T15:07:02.920Z,13.39
2019-03-20T15:09:33.975Z,13.46
2019-03-20T15:12:07.468Z,13.56
2019-03-20T15:14:38.590Z,13.72
2019-03-20T15:17:09.270Z,13.63
2019-03-20T15:19:40.226Z,13.36
2019-03-20T15:22:10.915Z,13.26
2019-03-20T15:24:41.972Z,13.23
2019-03-20T15:27:13.080Z,13.27
2019-03-20T15:29:44.121Z,13.03
2019-03-20T15:32:14.801Z,13.00
2019-03-20T15:34:45.786Z,13.06
2019-03-20T15:37:16.828Z,13.08
2019-03-20T15:39:47.503Z,13.05
2019-03-20T15:42:18.498Z,13.02
2019-03-20T15:44:49.255Z,12.98
2019-03-20T15:47:20.284Z,12.76
2019-03-20T15:49:52.511Z,12.68
2019-03-20T15:52:23.478Z,12.60
2019-03-20T15:54:54.501Z,12.69
2019-03-20T15:57:25.554Z,12.56
2019-03-20T15:59:56.481Z,12.63
2019-03-20T16:02:27.243Z,12.65
2019-03-20T16:04:57.904Z,12.60
2019-03-20T16:07:28.905Z,12.54
2019-03-20T16:10:00.035Z,12.52
2019-03-20T16:12:31.190Z,12.47
2019-03-20T16:15:01.894Z,12.51
2019-03-20T16:17:33.079Z,12.36
2019-03-20T16:20:05.579Z,12.27
2019-03-20T16:22:36.577Z,12.10
2019-03-20T16:25:12.131Z,12.15
2019-03-20T16:27:42.857Z,12.05
2019-03-20T16:30:19.738Z,12.01
2019-03-20T16:32:51.752Z,11.99
2019-03-20T16:35:23.142Z,11.87
2019-03-20T16:37:56.021Z,11.71
2019-03-20T16:40:36.027Z,11.68
2019-03-20T16:43:06.912Z,11.66
2019-03-20T16:45:40.544Z,11.60
2019-03-20T16:48:11.554Z,11.42
2019-03-20T16:50:42.251Z,11.51
2019-03-20T16:53:12.969Z,11.39
2019-03-20T16:55:50.092Z,11.32
2019-03-20T16:58:21.126Z,11.27
2019-03-20T17:00:52.323Z,11.23
2019-03-20T17:03:23.163Z,11.21
2019-03-20T17:05:54.406Z,11.19
2019-03-20T17:08:26.166Z,11.20
2019-03-20T17:10:57.392Z,11.15
2019-03-20T17:13:28.438Z,11.07
2019-03-20T17:15:59.469Z,11.09
2019-03-20T17:18:30.163Z,10.93
2019-03-20T17:21:00.830Z,10.94
2019-03-20T17:23:31.532Z,10.87
2019-03-20T17:26:03.623Z,10.90
2019-03-20T17:28:34.289Z,10.76
2019-03-20T17:31:05.404Z,10.75
2019-03-20T17:33:36.460Z,10.76
2019-03-20T17:36:07.174Z,10.67
2019-03-20T17:38:38.257Z,10.56
2019-03-20T17:41:09.027Z,10.47
2019-03-20T17:43:39.736Z,10.37
2019-03-20T17:46:13.682Z,10.30
2019-03-20T17:48:44.629Z,10.25
2019-03-20T17:51:15.668Z,10.19
2019-03-20T17:53:46.630Z,10.14
2019-03-20T17:56:17.649Z,10.15
2019-03-20T17:58:48.566Z,10.06
2019-03-20T18:01:19.287Z,9.99
2019-03-20T18:03:50.465Z,9.94
2019-03-20T18:06:24.499Z,9.90
2019-03-20T18:08:58.135Z,9.86
2019-03-20T18:11:28.906Z,9.86
2019-03-20T18:14:00.621Z,9.84
2019-03-20T18:16:31.619Z,9.80
2019-03-20T18:19:02.566Z,9.73
2019-03-20T18:21:33.646Z,9.67
2019-03-20T18:24:04.928Z,9.62
2019-03-20T18:26:35.953Z,9.56
2019-03-20T18:29:06.849Z,9.52
2019-03-20T18:31:45.666Z,9.44
2019-03-20T18:34:10.837Z,9.37
2019-03-20T18:36:42.536Z,9.30
2019-03-20T18:39:15.300Z,9.24
2019-03-20T18:41:46.798Z,9.19
2019-03-20T18:44:17.520Z,9.22
2019-03-20T18:46:48.598Z,9.33
2019-03-20T18:49:20.923Z,9.33
2019-03-20T18:51:52.071Z,9.10
2019-03-20T18:54:24.174Z,9.01
2019-03-20T18:56:56.236Z,8.93
2019-03-20T18:59:27.213Z,8.91
2019-03-20T19:01:58.669Z,8.80
2019-03-20T19:04:29.928Z,8.74
2019-03-20T19:07:01.122Z,8.65
2019-03-20T19:09:33.917Z,8.57
2019-03-20T19:12:08.911Z,8.50
2019-03-20T19:14:38.470Z,8.41
2019-03-20T19:17:09.521Z,8.36
2019-03-20T19:19:42.193Z,8.34
2019-03-20T19:22:13.178Z,8.27
2019-03-20T19:24:45.039Z,8.22
2019-03-20T19:27:16.042Z,8.24
2019-03-20T19:29:46.942Z,8.17
2019-03-20T19:32:20.481Z,8.06
2019-03-20T19:34:53.257Z,7.97
2019-03-20T19:37:30.829Z,7.89
2019-03-20T19:40:03.823Z,7.86
2019-03-20T19:42:35.489Z,7.79
2019-03-20T19:45:15.303Z,7.78
2019-03-20T19:47:47.834Z,7.72
2019-03-20T19:50:22.737Z,7.80
2019-03-20T19:52:54.272Z,7.82
2019-03-20T19:55:25.314Z,7.89
2019-03-20T19:57:56.335Z,7.75
2019-03-20T20:00:33.092Z,7.70
2019-03-20T20:03:04.809Z,7.65
2019-03-20T20:05:35.608Z,7.54
2019-03-20T20:08:06.528Z,7.48
2019-03-20T20:10:37.707Z,7.42
2019-03-20T20:13:09.134Z,7.38
2019-03-20T20:15:40.278Z,7.29
2019-03-20T20:18:12.217Z,7.23
2019-03-20T20:20:43.311Z,7.28
2019-03-20T20:23:14.710Z,7.19
2019-03-20T20:25:45.681Z,7.22
2019-03-20T20:28:16.739Z,7.26
2019-03-20T20:30:47.660Z,7.21
2019-03-20T20:33:18.351Z,7.21
2019-03-20T20:35:49.323Z,7.10
2019-03-20T20:38:20.525Z,7.00
2019-03-20T20:40:51.846Z,6.91
2019-03-20T20:43:22.610Z,6.87
2019-03-20T20:45:53.653Z,6.84
2019-03-20T20:48:24.674Z,6.86
2019-03-20T20:50:55.408Z,6.86
2019-03-20T20:53:26.343Z,6.73
2019-03-20T20:55:57.620Z,6.68
2019-03-20T20:58:28.302Z,6.69
2019-03-20T21:00:59.273Z,6.66
2019-03-20T21:03:30.561Z,6.69
2019-03-20T21:06:01.883Z,6.74
2019-03-20T21:08:33.018Z,6.68
2019-03-20T21:11:04.071Z,6.69
2019-03-20T21:13:35.196Z,6.68
2019-03-20T21:16:06.522Z,6.63
2019-03-20T21:18:51.011Z,6.63
2019-03-20T21:21:22.185Z,6.70
2019-03-20T21:24:23.136Z,6.83
2019-03-20T21:27:10.441Z,6.59
2019-03-20T21:29:54.455Z,6.51
2019-03-20T21:32:49.377Z,6.45
2019-03-20T21:36:08.726Z,6.41
2019-03-20T21:38:39.380Z,6.33
2019-03-20T21:41:29.173Z,6.30
2019-03-20T21:44:28.942Z,6.25
2019-03-20T21:47:23.241Z,6.20
2019-03-20T21:49:54.158Z,6.26
2019-03-20T21:52:24.844Z,6.26
2019-03-20T21:55:24.374Z,6.27
2019-03-20T21:58:02.294Z,6.30
2019-03-20T22:01:00.540Z,6.25
2019-03-20T22:03:32.523Z,6.22
2019-03-20T22:06:08.047Z,6.19
2019-03-20T22:08:38.999Z,6.23
2019-03-20T22:11:33.517Z,6.23
2019-03-20T22:14:13.377Z,6.22
2019-03-20T22:17:10.321Z,6.12
2019-03-20T22:19:54.234Z,6.06
2019-03-20T22:22:42.388Z,6.12
2019-03-20T22:25:34.942Z,5.97
2019-03-20T22:28:59.315Z,5.98
2019-03-20T22:31:33.693Z,5.89
2019-03-20T22:34:33.827Z,5.84
2019-03-20T22:37:04.575Z,5.85
2019-03-20T22:40:08.346Z,5.76
2019-03-20T22:43:00.234Z,5.80
2019-03-20T22:46:06.551Z,5.76
2019-03-20T22:49:14.898Z,5.81
2019-03-20T22:52:13.883Z,5.75
2019-03-20T22:55:17.955Z,5.73
2019-03-20T22:58:27.611Z,5.76
2019-03-20T23:01:02.455Z,5.75
2019-03-20T23:03:57.065Z,5.76
2019-03-20T23:06:28.084Z,5.80
2019-03-20T23:08:58.776Z,5.86
2019-03-20T23:11:29.534Z,5.81
2019-03-20T23:14:00.277Z,5.74
2019-03-20T23:16:31.261Z,5.75
2019-03-20T23:19:02.199Z,5.81
2019-03-20T23:21:33.108Z,5.81
2019-03-20T23:24:03.880Z,5.80
2019-03-20T23:26:34.565Z,5.69
2019-03-20T23:29:05.662Z,5.67
2019-03-20T23:31:36.656Z,5.75
2019-03-20T23:34:07.799Z,5.75
2019-03-20T23:36:39.890Z,5.79
2019-03-20T23:39:10.747Z,5.82
2019-03-20T23:41:41.818Z,5.79
2019-03-20T23:44:12.933Z,5.74
2019-03-20T23:46:43.663Z,5.67
2019-03-20T23:49:19.493Z,5.64
2019-03-20T23:51:50.426Z,5.70
2019-03-20T23:54:26.410Z,5.61
2019-03-20T23:56:57.355Z,5.63
2019-03-20T23:59:28.353Z,5.80
